Time;durP1;ratioP1;P1;durP2;ratioP2;P2;SDS_P1;SDS_P2;PMS_P1;PMS_P2;Temp;Humidity;BMP_temperature;BMP_pressure;BME280_temperature;BME280_humidity;BME280_pressure;Samples;Min_cycle;Max_cycle;Signal;HPM_P1;HPM_P2
2022/08/12 08:01:27;;;;;;;7.47;5.32;;;;;;;23.89;44.56;101747.13;5322223;27;20343;-74
2022/08/12 08:06:49;;;;;;;8.05;4.60;;;;;;;24.17;44.73;101755.63;5321517;28;20036;-73
2022/08/12 08:09:22;;;;;;;7.13;5.15;;;;;;;24.23;43.77;101759.03;5302301;28;20029;-73
2022/08/12 08:14:43;;;;;;;6.32;4.78;;;;;;;24.37;43.40;101750.94;5322339;28;20043;-74
2022/08/12 08:17:16;;;;;;;8.05;4.80;;;;;;;24.56;43.43;101761.59;5322480;28;20020;-75
2022/08/12 08:19:51;;;;;;;13.23;4.90;;;;;;;24.59;43.69;101757.22;5319960;28;20020;-73
2022/08/12 08:22:23;;;;;;;4.72;4.00;;;;;;;24.67;42.59;101762.72;5321886;28;20035;-76
2022/08/12 08:24:58;;;;;;;6.85;4.35;;;;;;;24.74;41.66;101762.88;5309398;28;20472;-73
2022/08/12 08:27:45;;;;;;;8.15;4.72;;;;;;;24.84;42.22;101755.84;5319516;28;20382;-73
2022/08/12 08:30:16;;;;;;;8.55;4.15;;;;;;;24.95;42.16;101761.81;5306389;28;20020;-73
2022/08/12 08:32:47;;;;;;;4.78;4.28;;;;;;;24.95;41.71;101756.97;5317691;28;20055;-72
2022/08/12 08:35:21;;;;;;;5.25;4.25;;;;;;;25.04;41.95;101753.94;5321600;28;20020;-73
2022/08/12 08:37:52;;;;;;;6.63;4.03;;;;;;;25.17;41.62;101755.50;5302652;28;20028;-72
2022/08/12 08:43:15;;;;;;;6.85;4.82;;;;;;;25.41;40.93;101756.47;5319539;28;20035;-72
2022/08/12 08:45:47;;;;;;;8.77;4.55;;;;;;;25.64;39.90;101755.78;5322073;28;20099;-72
2022/08/12 08:48:21;;;;;;;7.20;3.97;;;;;;;25.69;39.23;101752.63;5302348;28;20158;-70
2022/08/12 08:50:58;;;;;;;7.82;4.50;;;;;;;25.75;39.67;101756.84;5308814;28;20048;-71
2022/08/12 08:53:29;;;;;;;10.38;4.80;;;;;;;25.82;38.33;101757.00;5300618;28;20051;-71
2022/08/12 08:56:00;;;;;;;10.65;4.45;;;;;;;25.94;38.50;101765.41;5320807;28;20024;-71
2022/08/12 08:58:32;;;;;;;7.85;4.55;;;;;;;26.03;37.76;101756.69;5320121;28;20051;-71
2022/08/12 09:01:04;;;;;;;6.57;3.72;;;;;;;26.14;36.96;101762.56;5318612;27;20047;-71
2022/08/12 09:03:36;;;;;;;9.00;3.90;;;;;;;26.12;37.21;101756.44;5320773;28;20470;-71
2022/08/12 09:06:07;;;;;;;10.52;4.38;;;;;;;26.28;37.68;101751.50;5314250;28;20031;-72
2022/08/12 09:08:42;;;;;;;9.25;4.65;;;;;;;26.28;37.14;101751.50;5299001;28;20502;-71
2022/08/12 09:14:06;;;;;;;8.13;4.50;;;;;;;26.54;36.66;101750.00;5285688;28;20036;-71
2022/08/12 09:16:38;;;;;;;7.50;3.70;;;;;;;26.60;35.65;101757.81;5298972;28;20027;-72
2022/08/12 09:19:12;;;;;;;8.30;3.38;;;;;;;26.66;35.34;101756.31;5306920;28;20020;-72
2022/08/12 09:21:47;;;;;;;4.93;3.63;;;;;;;26.76;35.59;101751.19;5306665;28;20039;-71
2022/08/12 09:24:19;;;;;;;8.68;3.85;;;;;;;26.87;35.12;101755.06;5305922;28;20012;-72
2022/08/12 09:26:51;;;;;;;6.95;3.75;;;;;;;27.01;34.73;101743.09;5306723;28;20031;-73
2022/08/12 09:29:22;;;;;;;6.65;4.00;;;;;;;27.10;34.79;101746.50;5305721;28;20032;-72
2022/08/12 09:31:54;;;;;;;5.60;3.40;;;;;;;27.23;33.74;101752.84;5306812;28;20413;-72
2022/08/12 09:34:28;;;;;;;6.07;4.07;;;;;;;27.31;33.66;101757.44;5285570;28;20052;-73
2022/08/12 09:37:01;;;;;;;5.35;3.55;;;;;;;27.27;34.04;101745.16;5284499;28;20028;-72
2022/08/12 09:39:32;;;;;;;6.88;3.58;;;;;;;27.41;33.55;101747.41;5286152;28;20431;-72
2022/08/12 09:47:44;;;;;;;4.60;3.47;;;;;;;27.64;32.58;101742.47;5323116;28;20068;-74
2022/08/12 09:50:18;;;;;;;5.00;3.25;;;;;;;27.71;32.70;101736.88;5303600;28;20542;-73
2022/08/12 09:53:13;;;;;;;3.75;3.35;;;;;;;27.72;33.54;101738.50;5309152;28;20028;-73
2022/08/12 09:55:47;;;;;;;6.85;3.53;;;;;;;27.78;32.61;101732.47;5285037;28;20032;-72
2022/08/12 09:58:25;;;;;;;5.07;3.50;;;;;;;27.98;32.02;101724.59;5284058;28;20089;-70
2022/08/12 10:01:03;;;;;;;4.05;3.60;;;;;;;27.98;32.00;101727.47;5293161;28;20503;-71
2022/08/12 10:03:36;;;;;;;6.30;3.85;;;;;;;28.02;32.84;101716.91;5298585;28;20044;-71
2022/08/12 10:06:09;;;;;;;6.13;3.33;;;;;;;28.29;32.09;101715.59;5302975;28;20027;-70
2022/08/12 10:08:43;;;;;;;7.45;3.35;;;;;;;28.14;32.34;101714.59;5284686;28;20028;-71
2022/08/12 10:14:05;;;;;;;8.13;3.25;;;;;;;28.26;31.19;101710.66;5284956;28;20259;-69
2022/08/12 10:16:42;;;;;;;6.88;3.28;;;;;;;28.34;31.40;101712.38;5285243;28;20033;-70
2022/08/12 10:19:18;;;;;;;7.63;3.40;;;;;;;28.46;30.16;101710.50;5283760;28;20032;-69
2022/08/12 10:21:50;;;;;;;5.13;3.47;;;;;;;28.56;30.28;101712.66;5284500;28;20028;-70
2022/08/12 10:24:22;;;;;;;8.13;3.65;;;;;;;28.58;30.82;101711.03;5292852;28;20406;-70
2022/08/12 10:29:46;;;;;;;11.73;3.38;;;;;;;28.65;31.28;101704.56;5296551;28;20079;-72
2022/08/12 10:32:22;;;;;;;4.93;3.78;;;;;;;28.74;30.84;101701.41;5304767;28;20031;-72
2022/08/12 10:34:53;;;;;;;4.97;3.53;;;;;;;28.72;29.74;101700.97;5304833;28;20022;-73
2022/08/12 10:37:27;;;;;;;6.25;3.42;;;;;;;28.70;30.13;101689.94;5295353;28;20370;-73
2022/08/12 10:39:59;;;;;;;8.17;4.20;;;;;;;28.83;30.55;101688.41;5300697;28;20024;-73
2022/08/12 10:45:38;;;;;;;7.22;3.33;;;;;;;28.89;29.83;101688.03;5250259;28;20443;-73
2022/08/12 10:48:09;;;;;;;5.78;3.67;;;;;;;29.00;29.89;101666.94;5304121;28;20067;-73
2022/08/12 10:50:40;;;;;;;5.82;3.75;;;;;;;29.12;29.63;101677.25;5305012;28;20023;-72
2022/08/12 10:53:12;;;;;;;7.60;3.17;;;;;;;29.13;29.56;101666.63;5304494;28;20073;-69
2022/08/12 10:55:43;;;;;;;4.95;3.10;;;;;;;29.08;29.64;101669.88;5302153;28;20097;-70
2022/08/12 10:58:14;;;;;;;6.85;4.25;;;;;;;29.19;29.57;101665.03;5284366;28;20021;-71
2022/08/12 11:00:46;;;;;;;3.90;2.90;;;;;;;29.26;28.61;101665.09;5282902;28;20098;-73
2022/08/12 11:03:20;;;;;;;7.35;3.55;;;;;;;29.20;29.60;101663.84;5292117;28;20055;-70
2022/08/12 11:05:51;;;;;;;7.10;3.23;;;;;;;29.26;28.88;101659.38;5304748;28;20020;-69
2022/08/12 11:08:22;;;;;;;11.88;6.60;;;;;;;29.28;29.23;101656.94;5290896;28;20291;-71
2022/08/12 11:10:54;;;;;;;6.57;4.15;;;;;;;29.32;29.26;101652.03;5304620;28;20026;-71
2022/08/12 11:13:25;;;;;;;4.13;3.40;;;;;;;29.48;28.92;101643.97;5294356;28;20025;-71
2022/08/12 11:15:57;;;;;;;4.45;3.30;;;;;;;29.48;28.52;101643.16;5298921;28;20043;-73
2022/08/12 11:18:28;;;;;;;5.68;3.05;;;;;;;29.41;29.17;101640.28;5304562;28;20086;-73
2022/08/12 11:21:02;;;;;;;6.72;3.40;;;;;;;29.47;28.63;101642.31;5304143;28;20111;-72
2022/08/12 11:23:34;;;;;;;4.75;3.67;;;;;;;29.68;29.22;101641.66;5303342;28;20056;-72
2022/08/12 11:26:05;;;;;;;5.10;3.22;;;;;;;29.59;28.68;101640.34;5290096;28;20424;-73
2022/08/12 11:28:36;;;;;;;8.63;3.75;;;;;;;29.64;27.61;101634.25;5282740;28;20028;-72
2022/08/12 11:31:08;;;;;;;6.85;3.10;;;;;;;29.81;27.31;101638.41;5293914;28;20024;-72
2022/08/12 11:33:41;;;;;;;5.72;3.10;;;;;;;29.64;28.09;101637.91;5283203;28;20024;-72
2022/08/12 11:36:13;;;;;;;4.80;3.10;;;;;;;29.58;27.87;101639.53;5288049;28;20421;-72
2022/08/12 11:38:44;;;;;;;9.60;3.67;;;;;;;29.77;27.86;101631.88;5304245;28;20089;-72
2022/08/12 11:41:16;;;;;;;6.70;3.13;;;;;;;29.97;28.08;101630.28;5293566;28;20471;-73
2022/08/12 11:43:47;;;;;;;5.90;3.13;;;;;;;29.95;27.73;101627.03;5282004;28;20040;-71
2022/08/12 11:46:24;;;;;;;8.38;3.33;;;;;;;30.15;27.58;101616.03;5293881;28;20425;-70
2022/08/12 11:48:56;;;;;;;5.80;3.10;;;;;;;30.05;26.83;101614.78;5303259;28;20421;-71
2022/08/12 11:51:27;;;;;;;6.38;3.88;;;;;;;30.13;27.39;101622.16;5303120;28;20031;-71
2022/08/12 11:54:00;;;;;;;6.78;3.50;;;;;;;30.38;27.30;101617.72;5286550;28;20043;-71
2022/08/12 11:56:32;;;;;;;5.00;3.60;;;;;;;30.24;27.25;101613.59;5298506;28;20035;-70
2022/08/12 11:59:03;;;;;;;5.32;3.30;;;;;;;30.32;27.07;101614.44;5299697;28;20107;-71
2022/08/12 12:01:34;;;;;;;4.30;3.65;;;;;;;30.46;27.26;101608.72;5303927;28;20027;-71
2022/08/12 12:04:05;;;;;;;8.13;6.70;;;;;;;30.48;27.87;101614.03;5302914;28;20111;-71
2022/08/12 12:06:37;;;;;;;5.03;3.50;;;;;;;30.47;27.02;101609.53;5289418;28;20044;-71
2022/08/12 12:09:08;;;;;;;5.72;4.57;;;;;;;30.57;26.71;101605.84;5283105;28;20260;-68
2022/08/12 12:11:42;;;;;;;6.28;2.95;;;;;;;30.51;26.33;101601.78;5293621;28;20028;-68
2022/08/12 12:14:13;;;;;;;7.32;2.85;;;;;;;30.50;27.42;101597.25;5303748;28;20399;-71
2022/08/12 12:16:48;;;;;;;8.35;3.20;;;;;;;30.53;26.90;101599.31;5286581;28;20032;-71
2022/08/12 12:19:19;;;;;;;6.72;3.75;;;;;;;30.75;26.50;101595.19;5284486;28;20033;-71
2022/08/12 12:21:50;;;;;;;6.88;3.50;;;;;;;30.70;26.68;101595.59;5294977;28;20468;-70
2022/08/12 12:24:21;;;;;;;5.32;3.13;;;;;;;30.66;26.21;101596.88;5300288;28;20375;-70
2022/08/12 12:26:53;;;;;;;4.50;3.53;;;;;;;30.62;25.67;101590.31;5302914;28;20036;-70
2022/08/12 12:29:24;;;;;;;5.35;2.92;;;;;;;30.72;26.09;101590.28;5304014;28;20036;-70
2022/08/12 12:31:58;;;;;;;6.30;3.58;;;;;;;30.91;26.72;101588.22;5302648;28;20017;-70
2022/08/12 12:34:29;;;;;;;4.93;2.88;;;;;;;30.97;26.18;101584.56;5303413;28;20107;-70
2022/08/12 12:37:01;;;;;;;4.38;3.00;;;;;;;30.93;26.00;101582.91;5303492;28;20100;-71
2022/08/12 12:39:32;;;;;;;8.73;3.50;;;;;;;31.06;26.05;101586.97;5296165;28;20056;-70
2022/08/12 12:42:04;;;;;;;8.05;4.03;;;;;;;30.90;25.65;101578.03;5282664;28;20028;-71
2022/08/12 12:44:38;;;;;;;7.47;3.78;;;;;;;31.13;25.65;101574.69;5282249;28;20048;-70
2022/08/12 12:47:10;;;;;;;11.10;7.45;;;;;;;31.20;25.11;101581.19;5283563;28;20028;-71
2022/08/12 12:49:41;;;;;;;6.15;3.90;;;;;;;31.12;25.14;101579.59;5287445;28;20466;-71
2022/08/12 12:52:13;;;;;;;6.70;3.08;;;;;;;31.07;26.49;101576.34;5286485;28;20039;-71
2022/08/12 12:54:51;;;;;;;8.20;3.95;;;;;;;31.20;25.98;101568.94;5285284;28;20024;-70
2022/08/12 12:57:24;;;;;;;5.07;3.50;;;;;;;31.35;25.88;101558.25;5295835;28;20028;-71
2022/08/12 13:02:51;;;;;;;6.47;3.63;;;;;;;31.42;25.64;101558.22;5307206;28;20391;-71
2022/08/12 13:05:25;;;;;;;5.20;3.67;;;;;;;31.45;25.83;101557.41;5307209;28;20032;-71
2022/08/12 13:07:59;;;;;;;11.63;10.30;;;;;;;31.66;25.27;101558.50;5304808;28;20018;-71
2022/08/12 13:10:30;;;;;;;7.82;6.28;;;;;;;31.55;25.80;101549.97;5307253;28;20028;-71
2022/08/12 13:13:02;;;;;;;12.65;4.32;;;;;;;31.70;25.95;101550.69;5305934;28;20023;-72
2022/08/12 13:15:33;;;;;;;6.85;3.83;;;;;;;31.50;25.92;101551.22;5285096;28;20552;-72
2022/08/12 13:18:06;;;;;;;6.03;4.20;;;;;;;31.73;25.69;101553.56;5285398;28;20025;-71
2022/08/12 13:20:37;;;;;;;6.75;3.67;;;;;;;31.61;25.21;101542.56;5287029;28;20361;-70
2022/08/12 13:23:09;;;;;;;5.97;4.03;;;;;;;31.73;25.09;101541.28;5305899;28;20031;-71
2022/08/12 13:25:40;;;;;;;8.32;4.03;;;;;;;31.92;25.54;101545.63;5305394;28;20055;-70
2022/08/12 13:28:20;;;;;;;6.47;4.38;;;;;;;32.05;25.27;101533.25;5305389;28;20024;-71
2022/08/12 13:30:52;;;;;;;9.40;4.53;;;;;;;31.99;25.74;101537.00;5291738;28;20056;-71
2022/08/12 13:33:27;;;;;;;5.15;3.92;;;;;;;32.14;25.36;101534.84;5285308;28;20025;-70
2022/08/12 13:36:00;;;;;;;7.20;3.90;;;;;;;32.16;25.18;101535.22;5284447;28;20101;-70
2022/08/12 13:38:39;;;;;;;7.40;5.07;;;;;;;32.29;25.35;101530.63;5284853;28;20032;-69
2022/08/12 13:41:31;;;;;;;6.28;4.20;;;;;;;32.18;24.55;101524.94;5284867;28;20024;-68
2022/08/12 13:44:05;;;;;;;5.97;3.85;;;;;;;32.39;24.71;101528.88;5287439;28;20029;-68
2022/08/12 13:46:39;;;;;;;6.47;3.90;;;;;;;32.18;25.08;101529.88;5286560;28;20107;-68
2022/08/12 13:49:12;;;;;;;7.60;4.03;;;;;;;32.36;24.63;101519.06;5286272;28;20494;-68
2022/08/12 13:51:49;;;;;;;11.23;4.30;;;;;;;32.45;24.61;101510.78;5303291;28;20035;-68
2022/08/12 13:54:21;;;;;;;8.23;3.80;;;;;;;32.55;24.37;101505.38;5298046;28;20024;-68
2022/08/12 13:56:52;;;;;;;6.10;4.10;;;;;;;32.55;24.64;101506.19;5305278;28;20073;-69
2022/08/12 13:59:23;;;;;;;5.75;3.92;;;;;;;32.58;24.45;101508.22;5305348;28;20040;-71
2022/08/12 14:01:56;;;;;;;4.53;3.45;;;;;;;32.48;24.84;101491.91;5306127;28;20031;-71
2022/08/12 14:04:27;;;;;;;7.10;3.45;;;;;;;32.60;24.04;101493.44;5296630;28;20395;-70
2022/08/12 14:07:01;;;;;;;11.93;10.35;;;;;;;32.60;24.25;101491.38;5295111;28;20028;-69
2022/08/12 14:10:35;;;;;;;8.67;5.20;;;;;;;32.96;24.51;101493.03;5284592;28;20036;-70
2022/08/12 14:12:38;;;;;;;9.52;3.42;;;;;;;32.88;23.58;101493.09;5283804;28;20115;-69
2022/08/12 14:15:10;;;;;;;4.97;3.17;;;;;;;33.19;24.31;101483.72;5284541;28;20039;-69
2022/08/12 14:17:41;;;;;;;11.40;10.00;;;;;;;33.21;23.48;101486.94;5286220;28;20032;-69
2022/08/12 14:20:12;;;;;;;9.02;5.47;;;;;;;33.05;22.78;101476.09;5305749;28;20024;-69
2022/08/12 14:22:44;;;;;;;18.33;16.70;;;;;;;33.25;22.97;101477.03;5290497;28;20119;-69
2022/08/12 14:25:15;;;;;;;6.38;3.78;;;;;;;33.25;22.69;101484.84;5296896;28;20427;-69
2022/08/12 14:27:46;;;;;;;3.97;3.58;;;;;;;33.25;22.77;101485.66;5298463;28;20025;-70
2022/08/12 14:30:18;;;;;;;3.72;3.03;;;;;;;33.19;22.54;101477.97;5289608;28;20047;-69
2022/08/12 14:32:49;;;;;;;5.43;3.28;;;;;;;33.30;22.11;101485.19;5304357;28;20052;-70
2022/08/12 14:35:20;;;;;;;3.85;2.97;;;;;;;33.22;22.14;101480.78;5305225;28;20016;-72
2022/08/12 14:37:55;;;;;;;5.95;3.00;;;;;;;32.97;22.20;101477.41;5305183;28;20024;-71
2022/08/12 14:40:28;;;;;;;5.40;3.03;;;;;;;33.02;23.00;101480.63;5303699;28;20467;-70
2022/08/12 14:43:01;;;;;;;5.40;3.70;;;;;;;33.11;23.13;101469.44;5303367;28;20052;-70
2022/08/12 14:45:35;;;;;;;4.50;3.50;;;;;;;33.22;22.35;101466.41;5304381;28;20482;-70
2022/08/12 14:48:07;;;;;;;18.20;3.25;;;;;;;33.09;23.69;101456.75;5304710;28;20072;-70
2022/08/12 14:50:39;;;;;;;8.23;3.10;;;;;;;32.99;22.82;101451.94;5305247;28;20436;-70
2022/08/12 14:53:13;;;;;;;3.88;3.35;;;;;;;32.91;22.75;101462.72;5299414;27;20063;-70
2022/08/12 14:55:48;;;;;;;8.60;4.75;;;;;;;32.78;22.89;101459.59;5299182;28;20023;-69
2022/08/12 14:58:19;;;;;;;5.03;3.20;;;;;;;32.71;22.93;101453.91;5304962;28;20059;-70
2022/08/12 15:03:43;;;;;;;8.52;3.83;;;;;;;32.44;22.58;101451.75;5296562;28;20032;-70
2022/08/12 15:06:16;;;;;;;5.68;3.08;;;;;;;32.43;24.13;101452.97;5303041;28;20035;-70
2022/08/12 15:08:47;;;;;;;5.22;2.90;;;;;;;32.37;23.11;101451.81;5297963;28;20092;-70
2022/08/12 15:11:18;;;;;;;4.95;2.90;;;;;;;32.37;23.11;101451.81;5303604;28;20462;-71
2022/08/12 15:13:50;;;;;;;8.10;4.03;;;;;;;32.34;23.34;101449.81;5300492;28;20467;-69
2022/08/12 15:16:21;;;;;;;5.38;3.50;;;;;;;32.36;23.38;101446.50;5304434;28;20031;-69
2022/08/12 15:18:53;;;;;;;6.20;3.17;;;;;;;32.41;23.07;101455.44;5300754;28;20541;-69
2022/08/12 15:21:25;;;;;;;3.70;3.00;;;;;;;32.39;22.74;101452.22;5294860;28;20025;-69
2022/08/12 15:23:56;;;;;;;8.20;2.88;;;;;;;32.25;22.64;101450.28;5291386;28;20020;-70
2022/08/12 15:26:29;;;;;;;6.63;2.88;;;;;;;32.20;23.62;101441.34;5282688;28;20032;-69
2022/08/12 15:29:00;;;;;;;63.53;57.55;;;;;;;32.32;23.11;101442.88;5282761;28;20024;-69
2022/08/12 15:31:32;;;;;;;14.02;12.60;;;;;;;32.15;22.62;101438.94;5303898;28;20031;-70
2022/08/12 15:34:06;;;;;;;5.35;2.85;;;;;;;32.12;23.00;101437.72;5292625;28;20499;-71
2022/08/12 15:36:37;;;;;;;3.33;2.72;;;;;;;32.07;23.59;101432.44;5282151;28;20052;-69
2022/08/12 15:39:09;;;;;;;5.30;2.58;;;;;;;32.20;22.52;101447.06;5283103;28;20447;-71
2022/08/12 15:41:43;;;;;;;4.55;2.97;;;;;;;32.13;22.97;101445.06;5283449;28;20027;-70
2022/08/12 15:44:14;;;;;;;4.47;2.50;;;;;;;31.97;23.15;101445.66;5285585;28;20107;-69
2022/08/12 15:46:49;;;;;;;6.40;3.00;;;;;;;31.94;23.99;101446.50;5289217;28;20546;-72
2022/08/12 15:49:21;;;;;;;4.68;2.97;;;;;;;31.83;23.35;101437.97;5296898;28;20016;-72
2022/08/12 15:51:52;;;;;;;4.82;2.60;;;;;;;31.91;22.83;101432.16;5296675;28;20016;-71
2022/08/12 15:54:24;;;;;;;4.15;3.33;;;;;;;31.83;24.19;101428.56;5302498;28;20437;-71
2022/08/12 15:56:55;;;;;;;3.90;2.85;;;;;;;31.90;22.85;101422.72;5282206;28;20055;-71
2022/08/12 15:59:42;;;;;;;3.95;2.70;;;;;;;31.87;22.83;101432.19;5283029;28;20072;-69
2022/08/12 16:02:14;;;;;;;8.25;3.60;;;;;;;32.05;23.21;101430.00;5282307;28;20037;-70
2022/08/12 16:04:49;;;;;;;2.97;2.67;;;;;;;32.01;22.12;101426.34;5282103;28;20127;-70
2022/08/12 16:07:24;;;;;;;;;;;;;;;32.06;22.65;101427.97;5290690;28;20030;-70
2022/08/12 16:09:57;;;;;;;3.20;2.85;;;;;;;31.95;21.86;101422.31;5302548;28;19912;-70
2022/08/12 16:12:31;;;;;;;3.70;2.97;;;;;;;31.88;22.30;101418.66;5303824;28;20032;-71
2022/08/12 16:15:02;;;;;;;3.47;3.08;;;;;;;32.00;22.86;101427.59;5303463;28;20024;-71
2022/08/12 16:17:35;;;;;;;3.63;2.83;;;;;;;31.81;23.14;101423.22;5303174;28;20388;-70
2022/08/12 16:20:12;;;;;;;3.35;2.90;;;;;;;31.80;23.47;101421.59;5300897;28;20077;-71
2022/08/12 16:22:45;;;;;;;4.30;2.45;;;;;;;31.91;22.61;101414.97;5285570;28;20434;-70
2022/08/12 16:25:19;;;;;;;3.70;3.10;;;;;;;31.94;22.36;101419.88;5285665;28;20020;-70
2022/08/12 16:27:50;;;;;;;5.35;3.30;;;;;;;31.87;22.95;101414.16;5294337;28;20108;-70
2022/08/12 16:30:24;;;;;;;4.07;3.20;;;;;;;32.14;21.99;101412.31;5303217;28;20111;-70
2022/08/12 16:33:07;;;;;;;3.53;3.20;;;;;;;32.23;22.12;101414.66;5285989;28;20275;-69
2022/08/12 16:35:40;;;;;;;5.32;3.38;;;;;;;31.94;22.72;101409.22;5293286;28;20455;-70
2022/08/12 16:38:14;;;;;;;3.88;2.90;;;;;;;32.09;22.40;101412.75;5296396;28;20156;-70
2022/08/12 16:40:46;;;;;;;4.72;2.60;;;;;;;32.15;22.57;101407.38;5291648;28;20020;-71
2022/08/12 16:43:40;;;;;;;5.90;3.25;;;;;;;32.16;22.78;101409.00;5288029;28;20029;-69
2022/08/12 16:46:15;;;;;;;4.18;2.83;;;;;;;32.32;22.42;101408.44;5285804;28;20082;-70
2022/08/12 16:48:46;;;;;;;3.42;2.95;;;;;;;32.19;23.32;101406.09;5287627;28;20027;-69
2022/08/12 16:51:18;;;;;;;6.97;3.00;;;;;;;32.13;22.94;101396.31;5286468;28;20036;-71
2022/08/12 16:53:50;;;;;;;4.05;2.45;;;;;;;32.36;22.06;101398.50;5285953;28;20027;-71
2022/08/12 16:56:21;;;;;;;4.82;2.50;;;;;;;32.23;23.39;101403.19;5305498;28;20028;-72
2022/08/12 16:58:52;;;;;;;5.95;2.60;;;;;;;32.48;21.71;101398.00;5305834;28;20048;-73
2022/08/12 17:01:24;;;;;;;4.72;2.70;;;;;;;32.49;22.40;101395.94;5305487;28;20043;-72
2022/08/12 17:04:06;;;;;;;2.65;2.22;;;;;;;32.50;21.58;101408.25;5307445;28;20386;-70
2022/08/12 17:06:46;;;;;;;6.00;2.25;;;;;;;32.20;22.36;101401.16;5306317;28;20091;-70
2022/08/12 17:09:18;;;;;;;4.07;2.33;;;;;;;32.39;21.87;101397.69;5306124;28;20467;-70
2022/08/12 17:11:49;;;;;;;4.82;2.50;;;;;;;32.80;22.40;101399.66;5299649;28;20024;-69
2022/08/12 17:14:23;;;;;;;2.95;2.08;;;;;;;32.31;20.99;101401.84;5303165;28;20489;-71
2022/08/12 17:16:55;;;;;;;3.40;2.22;;;;;;;32.18;21.74;101403.66;5307075;28;20012;-70
2022/08/12 17:19:29;;;;;;;5.07;2.42;;;;;;;32.26;22.29;101400.28;5307025;28;20374;-70
2022/08/12 17:22:04;;;;;;;4.45;2.65;;;;;;;32.16;21.83;101400.38;5306272;28;20069;-70
2022/08/12 17:24:38;;;;;;;5.35;2.90;;;;;;;31.98;22.76;101400.56;5303679;28;20475;-71
2022/08/12 17:27:10;;;;;;;5.45;2.78;;;;;;;31.84;21.56;101401.50;5290554;28;20073;-69
2022/08/12 17:29:44;;;;;;;5.00;2.63;;;;;;;31.73;22.20;101389.31;5302343;28;20028;-70
2022/08/12 17:32:17;;;;;;;5.22;2.50;;;;;;;31.87;22.85;101394.91;5306104;28;20527;-70
